Andersonville, Georgia
Current Conditions -  °F | °C
As of 11:55 AM on Sunday 23 Nov 2014 (Local Time) from KACJ Reporting Station
Light Rain Light Rain  
Wind Chill: 63°   Ceiling: 300
Heat Index: 63°   Visibility: 2mi
Dew Point: 63°   Wind: 5mph
Humidity: 100%   Direction: 180°S
Pressure: 29.9"   Gusts: NA
Location:  32.2°N, 84.14°W
Report Text: KACJ 231655Z AUTO 18004KT 2SM -RA OVC003 17/17 A2990 RMK AO2 LTG DSNT N AND W
Loading
Personal Weather Stations






























Interactive Weather Map New forecast layout! Learn more

10-Day Weather Forecast

Advertisements
Track Severe Weather on mobile